Time;durP1;ratioP1;P1;durP2;ratioP2;P2;SDS_P1;SDS_P2;PMS_P1;PMS_P2;Temp;Humidity;BMP_temperature;BMP_pressure;BME280_temperature;BME280_humidity;BME280_pressure;Samples;Min_cycle;Max_cycle;Signal;HPM_P1;HPM_P2
2023/03/17 00:02:21;;;;;;;1999.90;999.90;;;7.80;99.90;;;;;;5090749;28;20434;-70
2023/03/17 00:04:51;;;;;;;1999.90;999.90;;;7.70;99.90;;;;;;5091930;28;20441;-69
2023/03/17 00:07:18;;;;;;;1999.90;999.90;;;7.50;99.90;;;;;;5090149;28;20426;-71
2023/03/17 00:09:44;;;;;;;1999.90;999.90;;;7.60;99.90;;;;;;5091764;28;20471;-69
2023/03/17 00:12:12;;;;;;;1999.90;999.90;;;7.60;99.90;;;;;;5091679;28;20429;-69
2023/03/17 00:14:39;;;;;;;1999.90;999.90;;;7.70;99.90;;;;;;5090658;28;20426;-69
2023/03/17 00:17:06;;;;;;;1999.90;999.90;;;7.60;99.90;;;;;;5089370;28;20432;-69
2023/03/17 00:19:35;;;;;;;1999.90;999.90;;;7.70;99.90;;;;;;5090928;28;20471;-68
2023/03/17 00:22:05;;;;;;;1999.90;999.90;;;7.70;99.90;;;;;;5091980;28;20940;-70
2023/03/17 00:24:32;;;;;;;1999.90;999.90;;;7.80;99.90;;;;;;5089539;28;20509;-69
2023/03/17 00:26:59;;;;;;;1999.90;999.90;;;7.90;99.90;;;;;;5092358;28;20433;-70
2023/03/17 00:29:25;;;;;;;1999.90;999.90;;;8.00;99.90;;;;;;5085696;28;20495;-69
2023/03/17 00:31:53;;;;;;;1999.90;999.90;;;8.10;99.80;;;;;;5092020;28;20428;-69
2023/03/17 00:34:20;;;;;;;1999.90;999.90;;;8.30;99.50;;;;;;5090937;28;20418;-69
2023/03/17 00:36:49;;;;;;;1999.90;999.90;;;8.50;99.10;;;;;;5091244;28;20429;-68
2023/03/17 00:39:17;;;;;;;1999.90;999.90;;;8.60;98.60;;;;;;5091623;28;20429;-64
2023/03/17 00:41:44;;;;;;;1999.90;999.90;;;8.50;98.50;;;;;;5094590;28;20428;-66
2023/03/17 00:44:11;;;;;;;1999.90;999.90;;;8.40;98.70;;;;;;5095657;28;20425;-67
2023/03/17 00:46:40;;;;;;;1999.90;999.90;;;8.40;99.10;;;;;;5090255;28;20955;-68
2023/03/17 00:49:14;;;;;;;1999.90;999.90;;;8.40;98.90;;;;;;5096160;28;20520;-67
2023/03/17 00:51:41;;;;;;;1999.90;999.90;;;8.50;98.90;;;;;;5093782;28;20853;-67
2023/03/17 00:54:09;;;;;;;1999.90;999.90;;;8.40;99.20;;;;;;5093379;28;20428;-67
2023/03/17 00:56:38;;;;;;;1999.90;999.90;;;8.20;99.40;;;;;;5092402;28;20430;-66
2023/03/17 00:59:12;;;;;;;1999.90;999.90;;;8.20;99.90;;;;;;5095633;28;20437;-71
2023/03/17 01:01:38;;;;;;;1999.90;999.90;;;8.40;99.60;;;;;;5093209;28;20433;-68
2023/03/17 01:04:05;;;;;;;1999.90;999.90;;;8.50;99.00;;;;;;5096778;28;20925;-69
2023/03/17 01:06:32;;;;;;;1999.90;999.90;;;8.50;98.70;;;;;;5094225;28;20919;-68
2023/03/17 01:08:59;;;;;;;1999.90;999.90;;;8.60;98.40;;;;;;5095933;28;20422;-70
2023/03/17 01:11:25;;;;;;;1999.90;999.90;;;8.70;98.30;;;;;;5094661;28;20429;-69
2023/03/17 01:13:53;;;;;;;1999.90;999.90;;;8.70;98.30;;;;;;5094734;28;20859;-67
2023/03/17 01:16:20;;;;;;;1999.90;999.90;;;8.50;98.50;;;;;;5093331;28;20479;-67
2023/03/17 01:18:47;;;;;;;1999.90;999.90;;;8.40;98.80;;;;;;5096578;28;20923;-70
2023/03/17 01:21:14;;;;;;;1999.90;999.90;;;8.30;98.90;;;;;;5093342;28;20430;-69
2023/03/17 01:23:41;;;;;;;1999.90;999.90;;;8.30;99.90;;;;;;5094978;28;20430;-69
2023/03/17 01:26:08;;;;;;;1999.90;999.90;;;7.90;99.90;;;;;;5094754;28;20428;-69
2023/03/17 01:28:35;;;;;;;1999.90;999.90;;;7.80;99.90;;;;;;5118145;22;20440;-72
2023/03/17 01:31:03;;;;;;;1999.90;999.90;;;7.40;99.90;;;;;;5084298;28;20491;-72
2023/03/17 01:33:30;;;;;;;1999.90;999.90;;;7.20;99.90;;;;;;5083204;28;20427;-72
2023/03/17 01:35:57;;;;;;;1999.90;999.90;;;7.10;99.90;;;;;;5087303;28;20422;-72
2023/03/17 01:38:23;;;;;;;1999.90;999.90;;;7.20;99.90;;;;;;5086538;28;20886;-71
2023/03/17 01:40:52;;;;;;;1999.90;999.90;;;7.20;99.90;;;;;;5082370;28;20967;-72
2023/03/17 01:43:22;;;;;;;1999.90;999.90;;;7.10;99.90;;;;;;5082893;28;20457;-72
2023/03/17 01:46:19;;;;;;;1999.90;999.90;;;7.20;99.90;;;;;;5084062;28;20434;-69
2023/03/17 01:48:52;;;;;;;1999.90;999.90;;;7.30;99.90;;;;;;5085001;28;20438;-69
2023/03/17 01:51:24;;;;;;;1999.90;999.90;;;7.00;99.90;;;;;;5083317;28;20441;-70
2023/03/17 01:53:52;;;;;;;1999.90;999.90;;;6.70;99.90;;;;;;5084123;28;20428;-72
2023/03/17 01:56:20;;;;;;;1999.90;999.90;;;6.70;99.90;;;;;;5083178;28;20904;-70
2023/03/17 01:58:50;;;;;;;1999.90;999.90;;;6.20;99.90;;;;;;5083061;28;20435;-71
2023/03/17 02:01:19;;;;;;;1999.90;999.90;;;6.40;99.90;;;;;;5083746;28;20436;-69
2023/03/17 02:03:47;;;;;;;1999.90;999.90;;;6.20;99.90;;;;;;5080740;28;20428;-72
2023/03/17 02:06:14;;;;;;;1999.90;999.90;;;6.20;99.90;;;;;;5083348;28;20430;-71
2023/03/17 02:08:42;;;;;;;1999.90;999.90;;;6.30;99.90;;;;;;5080322;28;20492;-71
2023/03/17 02:11:10;;;;;;;1999.90;999.90;;;6.30;99.90;;;;;;5084290;28;20430;-73
2023/03/17 02:13:37;;;;;;;1999.90;999.90;;;6.40;99.90;;;;;;5081168;28;20432;-72
2023/03/17 02:16:05;;;;;;;1999.90;999.90;;;6.40;99.90;;;;;;5084428;28;20479;-71
2023/03/17 02:18:34;;;;;;;1999.90;999.90;;;6.50;99.90;;;;;;5085514;28;20465;-71
2023/03/17 02:21:30;;;;;;;1999.90;999.90;;;6.40;99.90;;;;;;5087592;28;20777;-71
2023/03/17 02:23:59;;;;;;;1999.90;999.90;;;6.40;99.90;;;;;;5084023;28;20534;-69
2023/03/17 02:26:26;;;;;;;1999.90;999.90;;;6.40;99.90;;;;;;5082457;28;20853;-71
2023/03/17 02:28:53;;;;;;;1999.90;999.90;;;6.40;99.90;;;;;;5082955;28;20438;-69
2023/03/17 02:31:20;;;;;;;1999.90;999.90;;;6.60;99.90;;;;;;5082696;28;20456;-69
2023/03/17 02:33:47;;;;;;;1999.90;999.90;;;6.70;99.90;;;;;;5082347;28;20438;-71
2023/03/17 02:36:14;;;;;;;1999.90;999.90;;;6.80;99.90;;;;;;5086188;28;20429;-69
2023/03/17 02:38:42;;;;;;;1999.90;999.90;;;7.00;99.90;;;;;;5081828;28;20462;-72
2023/03/17 02:41:09;;;;;;;1999.90;999.90;;;7.00;99.90;;;;;;5084219;28;20495;-72
2023/03/17 02:43:36;;;;;;;1999.90;999.90;;;6.70;99.90;;;;;;5081136;28;20434;-73
2023/03/17 02:46:04;;;;;;;1999.90;999.90;;;6.40;99.90;;;;;;5084024;28;20441;-74
2023/03/17 02:48:31;;;;;;;1999.90;999.90;;;6.50;99.90;;;;;;5081742;28;20431;-66
2023/03/17 02:50:58;;;;;;;1999.90;999.90;;;6.70;99.90;;;;;;5087008;28;20918;-75
2023/03/17 02:53:25;;;;;;;1999.90;999.90;;;6.50;99.90;;;;;;5080894;28;20429;-69
2023/03/17 02:55:53;;;;;;;1999.90;999.90;;;6.50;99.90;;;;;;5082904;28;20501;-69
2023/03/17 02:58:19;;;;;;;1999.90;999.90;;;6.50;99.90;;;;;;5088387;28;20487;-71
2023/03/17 03:00:47;;;;;;;1999.90;999.90;;;6.20;99.90;;;;;;5080569;28;20843;-72
2023/03/17 03:03:14;;;;;;;1999.90;999.90;;;6.20;99.90;;;;;;5088954;28;20426;-71
2023/03/17 03:05:41;;;;;;;1999.90;999.90;;;6.10;99.90;;;;;;5079056;28;20427;-71
2023/03/17 03:08:08;;;;;;;1999.90;999.90;;;6.20;99.90;;;;;;5083091;28;20421;-72
2023/03/17 03:10:35;;;;;;;1999.90;999.90;;;6.10;99.90;;;;;;5083824;28;20588;-71
2023/03/17 03:13:03;;;;;;;1999.90;999.90;;;6.10;99.90;;;;;;5083273;28;20441;-70
2023/03/17 03:15:29;;;;;;;1999.90;999.90;;;6.30;99.90;;;;;;5084602;28;20486;-71
2023/03/17 03:17:56;;;;;;;1999.90;999.90;;;6.10;99.90;;;;;;5083027;28;20435;-69
2023/03/17 03:20:23;;;;;;;1999.90;999.90;;;5.90;99.90;;;;;;5081238;28;20522;-74
2023/03/17 03:22:49;;;;;;;1999.90;999.90;;;5.70;99.90;;;;;;5080635;28;20801;-68
2023/03/17 03:25:16;;;;;;;1999.90;999.90;;;5.70;99.90;;;;;;5084250;28;20425;-68
2023/03/17 03:27:43;;;;;;;1999.90;999.90;;;5.80;99.90;;;;;;5082345;28;20461;-70
2023/03/17 03:30:12;;;;;;;1999.90;999.90;;;6.00;99.90;;;;;;5083589;28;20430;-71
2023/03/17 03:32:39;;;;;;;1999.90;999.90;;;6.30;99.90;;;;;;5080672;28;20435;-71
2023/03/17 03:35:07;;;;;;;1999.90;999.90;;;6.30;99.90;;;;;;5082730;28;20511;-70
2023/03/17 03:37:33;;;;;;;1999.90;999.90;;;6.20;99.90;;;;;;5080368;28;20462;-70
2023/03/17 03:40:00;;;;;;;1999.90;999.90;;;6.40;99.90;;;;;;5083059;28;21001;-70
2023/03/17 03:42:27;;;;;;;1999.90;999.90;;;6.50;99.90;;;;;;5086206;28;20780;-74
2023/03/17 03:44:54;;;;;;;1999.90;999.90;;;6.30;99.90;;;;;;5080788;28;20427;-70
2023/03/17 03:47:22;;;;;;;1999.90;999.90;;;6.40;99.90;;;;;;5081741;28;20429;-70
2023/03/17 03:49:49;;;;;;;1999.90;999.90;;;6.30;99.90;;;;;;5080189;28;21022;-70
2023/03/17 03:52:15;;;;;;;1999.90;999.90;;;6.30;99.90;;;;;;5082057;28;20434;-71
2023/03/17 03:54:42;;;;;;;1999.90;999.90;;;6.50;99.90;;;;;;5080150;28;20978;-71
2023/03/17 03:57:09;;;;;;;1999.90;999.90;;;6.50;99.90;;;;;;5082779;28;20475;-71
2023/03/17 03:59:35;;;;;;;1999.90;999.90;;;6.60;99.90;;;;;;5080862;28;20485;-70
2023/03/17 04:02:02;;;;;;;1999.90;999.90;;;6.40;99.90;;;;;;5081902;28;20491;-72
2023/03/17 04:04:30;;;;;;;1999.90;999.90;;;6.20;99.90;;;;;;5080085;28;20425;-71
2023/03/17 04:06:57;;;;;;;1999.90;999.90;;;6.00;99.90;;;;;;5080532;28;20427;-71
2023/03/17 04:09:23;;;;;;;1999.90;999.90;;;5.90;99.90;;;;;;5087651;28;20429;-72
2023/03/17 04:11:50;;;;;;;1999.90;999.90;;;6.00;99.90;;;;;;5082438;28;20481;-70
2023/03/17 04:14:17;;;;;;;1999.90;999.90;;;6.00;99.90;;;;;;5084217;28;20430;-69
2023/03/17 04:16:44;;;;;;;1999.90;999.90;;;6.10;99.90;;;;;;5083853;28;20526;-72
2023/03/17 04:19:11;;;;;;;1999.90;999.90;;;6.30;99.90;;;;;;5086892;28;20453;-71
2023/03/17 04:21:39;;;;;;;1999.90;999.90;;;6.50;99.90;;;;;;5083624;28;20978;-69
2023/03/17 04:24:07;;;;;;;1999.90;999.90;;;6.40;99.90;;;;;;5085871;28;20427;-69
2023/03/17 04:26:33;;;;;;;1999.90;999.90;;;6.30;99.90;;;;;;5084937;28;20429;-71
2023/03/17 04:29:00;;;;;;;1999.90;999.90;;;6.30;99.90;;;;;;5088875;28;20485;-70
2023/03/17 04:31:26;;;;;;;1999.90;999.90;;;6.40;99.90;;;;;;5085248;28;20784;-69
2023/03/17 04:33:53;;;;;;;1999.90;999.90;;;6.50;99.90;;;;;;5084493;28;20431;-72
2023/03/17 04:36:22;;;;;;;1999.90;999.90;;;6.20;99.90;;;;;;5084116;28;20425;-71
2023/03/17 04:38:50;;;;;;;1999.90;999.90;;;5.90;99.90;;;;;;5082907;28;20459;-72
2023/03/17 04:41:17;;;;;;;1999.90;999.90;;;5.80;99.90;;;;;;5084330;28;20430;-75
2023/03/17 04:43:44;;;;;;;1999.90;999.90;;;5.80;99.90;;;;;;5083701;28;20424;-72
2023/03/17 04:46:11;;;;;;;1999.90;999.90;;;5.60;99.90;;;;;;5085810;28;20425;-74
2023/03/17 04:48:37;;;;;;;1999.90;999.90;;;5.60;99.90;;;;;;5082031;28;20427;-71
2023/03/17 04:51:04;;;;;;;1999.90;999.90;;;5.60;99.90;;;;;;5086439;28;20539;-70
2023/03/17 04:53:31;;;;;;;1999.90;999.90;;;5.50;99.90;;;;;;5090742;28;20466;-71
2023/03/17 04:55:59;;;;;;;1999.90;999.90;;;5.40;99.90;;;;;;5083046;28;20486;-71
2023/03/17 04:58:26;;;;;;;1999.90;999.90;;;5.30;99.90;;;;;;5084118;28;20437;-71
2023/03/17 05:00:53;;;;;;;1999.90;999.90;;;5.30;99.90;;;;;;5089667;28;20434;-70
2023/03/17 05:03:20;;;;;;;1999.90;999.90;;;5.20;99.90;;;;;;5085772;28;21006;-70
2023/03/17 05:05:46;;;;;;;1999.90;999.90;;;5.20;99.90;;;;;;5082869;28;20424;-70
2023/03/17 05:08:13;;;;;;;1999.90;999.90;;;5.10;99.90;;;;;;5084395;28;20462;-74
2023/03/17 05:10:40;;;;;;;1999.90;999.90;;;4.90;99.90;;;;;;5082960;28;20492;-71
2023/03/17 05:13:08;;;;;;;1999.90;999.90;;;4.80;99.90;;;;;;5084883;28;20429;-70
2023/03/17 05:15:35;;;;;;;1999.90;999.90;;;4.80;99.90;;;;;;5083584;28;20449;-71
2023/03/17 05:18:01;;;;;;;1999.90;999.90;;;4.60;99.90;;;;;;5084927;28;20434;-75
2023/03/17 05:20:28;;;;;;;1999.90;999.90;;;4.80;99.90;;;;;;5091073;28;20429;-71
2023/03/17 05:22:55;;;;;;;1999.90;999.90;;;4.70;99.90;;;;;;5084308;28;20427;-71
2023/03/17 05:25:22;;;;;;;1999.90;999.90;;;4.60;99.90;;;;;;5082812;28;20485;-71
2023/03/17 05:27:48;;;;;;;1999.90;999.90;;;4.50;99.90;;;;;;5082100;28;20435;-74
2023/03/17 05:30:17;;;;;;;1999.90;999.90;;;4.50;99.90;;;;;;5085468;28;20452;-69
2023/03/17 05:32:44;;;;;;;1999.90;999.90;;;4.50;99.90;;;;;;5085083;28;20801;-71
2023/03/17 05:35:11;;;;;;;1999.90;999.90;;;4.40;99.90;;;;;;5085317;28;20479;-71
2023/03/17 05:37:38;;;;;;;1999.90;999.90;;;4.40;99.90;;;;;;5083257;28;20443;-71
2023/03/17 05:40:05;;;;;;;1999.90;999.90;;;4.20;99.90;;;;;;5084051;28;20642;-68
2023/03/17 05:42:32;;;;;;;1999.90;999.90;;;4.30;99.90;;;;;;5084037;28;20430;-70
2023/03/17 05:44:58;;;;;;;1999.90;999.90;;;4.40;99.90;;;;;;5083542;28;20470;-71
2023/03/17 05:47:26;;;;;;;1999.90;999.90;;;4.40;99.90;;;;;;5083654;28;20434;-70
2023/03/17 05:49:53;;;;;;;1999.90;999.90;;;4.60;99.90;;;;;;5082396;28;20508;-72
2023/03/17 05:52:20;;;;;;;1999.90;999.90;;;4.60;99.90;;;;;;5083660;28;20432;-71
2023/03/17 05:54:47;;;;;;;1999.90;999.90;;;4.50;99.90;;;;;;5082743;28;20455;-72
2023/03/17 05:57:14;;;;;;;1999.90;999.90;;;4.60;99.90;;;;;;5084672;28;20504;-71
2023/03/17 05:59:41;;;;;;;1999.90;999.90;;;4.30;99.90;;;;;;5085743;28;20484;-70
2023/03/17 06:02:08;;;;;;;1999.90;999.90;;;4.40;99.90;;;;;;5084122;28;20434;-72
2023/03/17 06:04:36;;;;;;;1999.90;999.90;;;4.60;99.90;;;;;;5084996;28;20927;-71
2023/03/17 06:07:04;;;;;;;1999.90;999.90;;;4.60;99.90;;;;;;5083506;28;20473;-69
2023/03/17 06:09:32;;;;;;;1999.90;999.90;;;4.60;99.90;;;;;;5083338;28;20422;-70
2023/03/17 06:11:58;;;;;;;1999.90;999.90;;;4.60;99.90;;;;;;5086158;28;20468;-71
2023/03/17 06:14:25;;;;;;;1999.90;999.90;;;4.80;99.90;;;;;;5083952;28;20433;-73
2023/03/17 06:16:52;;;;;;;1999.90;999.90;;;5.00;99.90;;;;;;5081957;28;20431;-72
2023/03/17 06:19:19;;;;;;;1999.90;999.90;;;5.00;99.90;;;;;;5084170;28;20429;-69
2023/03/17 06:21:48;;;;;;;1999.90;999.90;;;5.00;99.90;;;;;;5085075;28;20916;-72
2023/03/17 06:24:15;;;;;;;1999.90;999.90;;;5.00;99.90;;;;;;5083470;28;20422;-71
2023/03/17 06:26:42;;;;;;;1999.90;999.90;;;4.90;99.90;;;;;;5085089;28;20518;-68
2023/03/17 06:29:10;;;;;;;1999.90;999.90;;;5.00;99.90;;;;;;5083402;28;20436;-72
2023/03/17 06:31:37;;;;;;;1999.90;999.90;;;4.80;99.90;;;;;;5083109;28;20432;-71
2023/03/17 06:34:05;;;;;;;1999.90;999.90;;;4.80;99.90;;;;;;5084745;28;20431;-72
2023/03/17 06:36:33;;;;;;;1999.90;999.90;;;4.90;99.90;;;;;;5081878;28;20501;-70
2023/03/17 06:39:00;;;;;;;1999.90;999.90;;;4.90;99.90;;;;;;5081839;28;20433;-71
2023/03/17 06:41:27;;;;;;;1999.90;999.90;;;5.10;99.90;;;;;;5074044;28;20418;-71
2023/03/17 06:43:54;;;;;;;1999.90;999.90;;;5.20;99.90;;;;;;5083969;28;20440;-71
2023/03/17 06:46:21;;;;;;;1999.90;999.90;;;5.30;99.90;;;;;;5076505;28;20428;-71
2023/03/17 06:48:48;;;;;;;1999.90;999.90;;;5.60;99.90;;;;;;5078013;28;20427;-72
2023/03/17 06:51:14;;;;;;;1999.90;999.90;;;5.80;99.90;;;;;;5084066;28;20769;-71
2023/03/17 06:53:41;;;;;;;1999.90;999.90;;;5.90;99.90;;;;;;5086266;28;20426;-70
2023/03/17 06:56:09;;;;;;;1999.90;999.90;;;5.80;99.90;;;;;;5087730;28;20462;-70
2023/03/17 06:58:36;;;;;;;1999.90;999.90;;;6.00;99.90;;;;;;5086324;28;20434;-75
2023/03/17 07:01:04;;;;;;;1999.90;999.90;;;6.30;99.90;;;;;;5091444;28;20887;-71
2023/03/17 07:03:31;;;;;;;1999.90;999.90;;;6.70;99.90;;;;;;5090560;28;20426;-69
2023/03/17 07:05:58;;;;;;;1999.90;999.90;;;7.30;99.90;;;;;;5079178;28;20502;-71
2023/03/17 07:08:25;;;;;;;1999.90;999.90;;;7.60;99.90;;;;;;5081577;28;20430;-70
2023/03/17 07:10:54;;;;;;;1999.90;999.90;;;7.90;99.90;;;;;;5082966;28;20458;-71
2023/03/17 07:13:22;;;;;;;1999.90;999.90;;;8.00;99.90;;;;;;5080558;28;20426;-70
2023/03/17 07:15:49;;;;;;;1999.90;999.90;;;8.10;99.90;;;;;;5085377;28;20429;-70
2023/03/17 07:18:17;;;;;;;1999.90;999.90;;;8.20;99.90;;;;;;5081390;28;20586;-70
2023/03/17 07:20:45;;;;;;;1999.90;999.90;;;8.20;99.90;;;;;;5080254;28;20446;-70
2023/03/17 07:23:15;;;;;;;1999.90;999.90;;;8.40;99.90;;;;;;5082393;28;20427;-70
2023/03/17 07:25:44;;;;;;;1999.90;999.90;;;8.40;99.90;;;;;;5082534;28;20421;-77
2023/03/17 07:28:11;;;;;;;1999.90;999.90;;;8.80;99.90;;;;;;5085800;28;20431;-72
2023/03/17 07:30:42;;;;;;;1999.90;999.90;;;8.90;99.90;;;;;;5079761;28;20453;-72
2023/03/17 07:33:10;;;;;;;1999.90;999.90;;;9.10;99.90;;;;;;5081017;28;20430;-71
2023/03/17 07:35:37;;;;;;;1999.90;999.90;;;9.20;99.90;;;;;;5079588;28;20460;-69
2023/03/17 07:38:04;;;;;;;1999.90;999.90;;;9.70;99.90;;;;;;5079302;28;20431;-67
2023/03/17 07:40:30;;;;;;;1999.90;999.90;;;9.50;99.90;;;;;;5079538;28;20492;-71
2023/03/17 07:42:58;;;;;;;1999.90;999.90;;;9.40;99.90;;;;;;5086687;28;20425;-72
2023/03/17 07:45:25;;;;;;;1999.90;999.90;;;9.30;99.90;;;;;;5082684;28;20448;-72
2023/03/17 07:47:53;;;;;;;1999.90;999.90;;;9.40;99.90;;;;;;5090942;28;20904;-70
2023/03/17 07:50:20;;;;;;;1999.90;999.90;;;9.80;99.90;;;;;;5090882;28;20459;-70
2023/03/17 07:52:46;;;;;;;1999.90;999.90;;;9.80;99.90;;;;;;5088122;28;20854;-72
2023/03/17 07:55:13;;;;;;;1999.90;999.90;;;9.50;99.90;;;;;;5082587;28;20438;-73
2023/03/17 07:57:40;;;;;;;1999.90;999.90;;;9.70;99.90;;;;;;5082951;28;20417;-72
2023/03/17 08:00:09;;;;;;;1999.90;999.90;;;9.90;99.90;;;;;;5091093;28;20409;-70
2023/03/17 08:02:36;;;;;;;1999.90;999.90;;;10.10;99.90;;;;;;5090526;28;20418;-71
2023/03/17 08:05:06;;;;;;;1999.90;999.90;;;10.20;99.90;;;;;;5090819;28;20459;-70
2023/03/17 08:07:33;;;;;;;1999.90;999.90;;;10.20;99.90;;;;;;5086995;28;20425;-71
2023/03/17 08:10:00;;;;;;;1999.90;999.90;;;10.00;99.90;;;;;;5082011;28;20494;-67
2023/03/17 08:12:27;;;;;;;1999.90;999.90;;;10.10;99.90;;;;;;5087048;28;20499;-67
2023/03/17 08:14:54;;;;;;;1999.90;999.90;;;10.20;99.90;;;;;;5084125;28;20425;-70
2023/03/17 08:17:23;;;;;;;1999.90;999.90;;;10.50;99.90;;;;;;5075443;28;20428;-70
2023/03/17 08:19:50;;;;;;;1999.90;999.90;;;10.80;99.90;;;;;;5076018;28;20436;-70
2023/03/17 08:22:18;;;;;;;1999.90;999.90;;;10.90;99.90;;;;;;5082154;28;20426;-72
2023/03/17 08:24:44;;;;;;;1999.90;999.90;;;11.20;99.90;;;;;;5084558;28;20430;-70
2023/03/17 08:27:11;;;;;;;1999.90;999.90;;;11.40;99.90;;;;;;5079742;28;20920;-70
2023/03/17 08:29:38;;;;;;;1999.90;999.90;;;11.70;99.90;;;;;;5082447;28;20430;-70
2023/03/17 08:32:06;;;;;;;1999.90;999.90;;;12.00;99.90;;;;;;5078650;28;20514;-69
2023/03/17 08:34:32;;;;;;;1999.90;999.90;;;12.00;99.90;;;;;;5076159;28;20468;-70
2023/03/17 08:37:00;;;;;;;1999.90;999.90;;;12.10;99.90;;;;;;5086366;28;20408;-70
2023/03/17 08:39:30;;;;;;;1999.90;999.90;;;12.40;99.90;;;;;;5076037;28;20461;-70
2023/03/17 08:41:57;;;;;;;1999.90;999.90;;;12.30;99.90;;;;;;5082548;28;20487;-70
2023/03/17 08:44:23;;;;;;;1999.90;999.90;;;12.60;99.90;;;;;;5090438;28;20421;-72
2023/03/17 08:46:51;;;;;;;1999.90;999.90;;;12.70;99.90;;;;;;5090551;28;20422;-70
2023/03/17 08:49:17;;;;;;;1999.90;999.90;;;12.70;99.90;;;;;;5090395;28;20907;-69
2023/03/17 08:51:45;;;;;;;1999.90;999.90;;;13.00;99.90;;;;;;5090624;28;20413;-71
2023/03/17 08:54:12;;;;;;;1999.90;999.90;;;13.20;99.90;;;;;;5090058;28;20455;-70
2023/03/17 08:56:41;;;;;;;1999.90;999.90;;;13.40;99.90;;;;;;5090359;28;20405;-71
2023/03/17 08:59:09;;;;;;;1999.90;999.90;;;13.60;99.90;;;;;;5090470;28;20416;-70
2023/03/17 09:01:36;;;;;;;1999.90;999.90;;;13.70;99.90;;;;;;5092336;28;20451;-70
2023/03/17 09:04:03;;;;;;;1999.90;999.90;;;13.80;99.90;;;;;;5093926;28;21085;-69
2023/03/17 09:06:30;;;;;;;1999.90;999.90;;;14.00;99.90;;;;;;5093998;28;20421;-69
2023/03/17 09:08:57;;;;;;;1999.90;999.90;;;14.00;99.90;;;;;;5094339;28;20409;-70
2023/03/17 09:11:26;;;;;;;1999.90;999.90;;;14.30;99.90;;;;;;5094710;28;20414;-71
2023/03/17 09:13:54;;;;;;;1999.90;999.90;;;14.60;99.90;;;;;;5094032;28;20504;-67
2023/03/17 09:16:22;;;;;;;1999.90;999.90;;;14.70;99.90;;;;;;5094601;28;20414;-69
2023/03/17 09:18:49;;;;;;;1999.90;999.90;;;14.80;99.90;;;;;;5093870;28;20405;-70
2023/03/17 09:21:16;;;;;;;1999.90;999.90;;;15.00;99.90;;;;;;5094349;28;20837;-71
2023/03/17 09:23:44;;;;;;;1999.90;999.90;;;15.30;99.90;;;;;;5094228;28;20402;-70
2023/03/17 09:26:11;;;;;;;1999.90;999.90;;;15.40;99.90;;;;;;5094172;28;20826;-69
2023/03/17 09:28:38;;;;;;;1999.90;999.90;;;15.50;99.90;;;;;;5093990;28;20471;-69
2023/03/17 09:31:10;;;;;;;1999.90;999.90;;;15.30;99.90;;;;;;5094234;28;20967;-69
2023/03/17 09:33:37;;;;;;;1999.90;999.90;;;15.60;99.90;;;;;;5094375;28;20424;-70
2023/03/17 09:36:04;;;;;;;1999.90;999.90;;;16.00;99.90;;;;;;5094305;28;20410;-70
2023/03/17 09:38:31;;;;;;;1999.90;999.90;;;16.00;99.90;;;;;;5094103;28;20406;-70
2023/03/17 09:41:04;;;;;;;1999.90;999.90;;;16.20;99.90;;;;;;5093932;28;20414;-69
2023/03/17 09:43:42;;;;;;;1999.90;999.90;;;16.40;98.90;;;;;;5093656;28;20409;-67
2023/03/17 09:46:26;;;;;;;1999.90;999.90;;;16.40;99.20;;;;;;5093866;28;20426;-70
2023/03/17 09:49:01;;;;;;;1999.90;999.90;;;16.60;99.50;;;;;;5093574;28;20416;-70
2023/03/17 09:51:29;;;;;;;1999.90;999.90;;;16.80;96.40;;;;;;5093762;28;20795;-69
2023/03/17 09:54:00;;;;;;;1999.90;999.90;;;16.90;95.40;;;;;;5093667;28;20456;-70
2023/03/17 09:56:29;;;;;;;1999.90;999.90;;;17.10;95.30;;;;;;5093312;28;20409;-70
2023/03/17 09:58:59;;;;;;;1999.90;999.90;;;17.30;95.20;;;;;;5093335;28;20433;-71
2023/03/17 10:01:28;;;;;;;1999.90;999.90;;;17.80;95.10;;;;;;5093365;28;20448;-70
2023/03/17 10:03:54;;;;;;;1999.90;999.90;;;17.50;94.60;;;;;;5093177;28;20467;-69
2023/03/17 10:06:33;;;;;;;1999.90;999.90;;;17.80;95.00;;;;;;5092873;28;20418;-69
2023/03/17 10:09:07;;;;;;;1999.90;999.90;;;18.00;94.70;;;;;;5093153;28;20776;-70
2023/03/17 10:11:40;;;;;;;1999.90;999.90;;;18.20;91.30;;;;;;5092583;28;20883;-69
2023/03/17 10:14:20;;;;;;;1999.90;999.90;;;18.40;91.00;;;;;;5093274;28;20416;-70
2023/03/17 10:16:54;;;;;;;1999.90;999.90;;;18.30;87.80;;;;;;5093141;28;20409;-70
2023/03/17 10:19:26;;;;;;;1999.90;999.90;;;18.30;88.00;;;;;;5092554;28;20406;-70
2023/03/17 10:21:57;;;;;;;1999.90;999.90;;;18.50;87.00;;;;;;5092934;28;20764;-70
2023/03/17 10:24:25;;;;;;;1999.90;999.90;;;18.60;85.90;;;;;;5092977;28;20445;-70
2023/03/17 10:26:56;;;;;;;1999.90;999.90;;;18.80;86.90;;;;;;5092654;28;20418;-69
2023/03/17 10:29:24;;;;;;;1999.90;999.90;;;18.90;86.40;;;;;;5092526;28;20505;-70
2023/03/17 10:31:54;;;;;;;1999.90;999.90;;;18.90;88.00;;;;;;5092649;28;20496;-70
2023/03/17 10:34:33;;;;;;;1999.90;999.90;;;19.00;81.50;;;;;;5092788;28;20418;-69
2023/03/17 10:37:03;;;;;;;1999.90;999.90;;;18.70;77.10;;;;;;5092885;28;20512;-67
2023/03/17 10:39:30;;;;;;;1999.90;999.90;;;18.20;78.90;;;;;;5092687;28;20908;-68
2023/03/17 10:41:58;;;;;;;1999.90;999.90;;;18.20;77.20;;;;;;5092821;28;20485;-70
2023/03/17 10:44:50;;;;;;;1999.90;999.90;;;18.50;78.80;;;;;;5092315;28;20777;-70
2023/03/17 10:47:30;;;;;;;1999.90;999.90;;;18.60;78.80;;;;;;5072522;28;20484;-71
2023/03/17 10:49:58;;;;;;;1999.90;999.90;;;18.40;79.00;;;;;;5092258;28;20424;-69
2023/03/17 10:52:29;;;;;;;1999.90;999.90;;;18.40;78.50;;;;;;5092293;28;20417;-69
2023/03/17 10:55:00;;;;;;;1999.90;999.90;;;18.30;78.00;;;;;;5092107;28;21101;-69
2023/03/17 10:57:28;;;;;;;1999.90;999.90;;;18.30;79.50;;;;;;5091952;28;20401;-69
2023/03/17 10:59:57;;;;;;;1999.90;999.90;;;18.00;79.30;;;;;;5092006;28;20406;-66
2023/03/17 11:02:28;;;;;;;1999.90;999.90;;;18.00;80.10;;;;;;5091930;28;20455;-70
2023/03/17 11:04:59;;;;;;;1999.90;999.90;;;18.10;79.50;;;;;;5092085;28;20417;-70
2023/03/17 11:07:37;;;;;;;1999.90;999.90;;;18.20;78.20;;;;;;5086206;28;20452;-66
2023/03/17 11:10:14;;;;;;;1999.90;999.90;;;18.20;77.00;;;;;;5082247;28;20434;-70
2023/03/17 11:12:42;;;;;;;1999.90;999.90;;;18.20;76.30;;;;;;5080371;28;20433;-70
2023/03/17 11:15:13;;;;;;;1999.90;999.90;;;17.90;75.40;;;;;;5081092;28;20992;-69
2023/03/17 11:17:47;;;;;;;1999.90;999.90;;;17.80;76.50;;;;;;5085013;28;20451;-69
2023/03/17 11:20:36;;;;;;;1999.90;999.90;;;17.80;79.50;;;;;;5077771;28;20431;-70
2023/03/17 11:23:09;;;;;;;1999.90;999.90;;;17.80;77.30;;;;;;5077586;28;20733;-68
2023/03/17 11:25:41;;;;;;;1999.90;999.90;;;17.70;77.10;;;;;;5077817;28;20944;-70
2023/03/17 11:28:18;;;;;;;1999.90;999.90;;;17.70;75.50;;;;;;5077315;28;20909;-70
2023/03/17 11:30:52;;;;;;;1999.90;999.90;;;17.60;78.30;;;;;;5081163;28;20543;-69
2023/03/17 11:33:33;;;;;;;1999.90;999.90;;;17.60;79.70;;;;;;5078259;28;20518;-69
2023/03/17 11:36:09;;;;;;;1999.90;999.90;;;17.80;78.70;;;;;;5086223;28;20491;-69
2023/03/17 11:38:40;;;;;;;1999.90;999.90;;;17.70;79.70;;;;;;5080365;28;20462;-69
2023/03/17 11:41:35;;;;;;;1999.90;999.90;;;17.60;78.70;;;;;;5087990;28;20460;-69
2023/03/17 11:44:23;;;;;;;1999.90;999.90;;;17.60;76.80;;;;;;5089403;28;21383;-67
2023/03/17 11:46:56;;;;;;;1999.90;999.90;;;17.60;78.70;;;;;;5081039;28;20498;-70
2023/03/17 11:49:31;;;;;;;1999.90;999.90;;;17.70;78.40;;;;;;5081397;28;20794;-69
2023/03/17 11:52:03;;;;;;;1999.90;999.90;;;17.70;77.80;;;;;;5076168;28;20484;-69
2023/03/17 11:54:40;;;;;;;1999.90;999.90;;;17.80;78.70;;;;;;5085849;28;20772;-70
2023/03/17 11:57:12;;;;;;;1999.90;999.90;;;17.80;77.30;;;;;;5090852;28;20440;-69
2023/03/17 11:59:44;;;;;;;1999.90;999.90;;;17.90;78.50;;;;;;5091040;28;20459;-70
2023/03/17 12:02:20;;;;;;;1999.90;999.90;;;17.80;77.10;;;;;;5090829;28;20500;-69
2023/03/17 12:04:54;;;;;;;1999.90;999.90;;;17.80;77.40;;;;;;5080282;28;20431;-70
2023/03/17 12:07:24;;;;;;;1999.90;999.90;;;17.90;78.70;;;;;;5081726;28;20459;-68
2023/03/17 12:10:00;;;;;;;1999.90;999.90;;;17.80;79.30;;;;;;5086261;28;20461;-70
2023/03/17 12:12:33;;;;;;;1999.90;999.90;;;17.80;78.60;;;;;;5077702;28;20432;-70
2023/03/17 12:15:04;;;;;;;1999.90;999.90;;;17.90;79.50;;;;;;5079485;28;20423;-70